Time;durP1;ratioP1;P1;durP2;ratioP2;P2;SDS_P1;SDS_P2;PMS_P1;PMS_P2;Temp;Humidity;BMP_temperature;BMP_pressure;BME280_temperature;BME280_humidity;BME280_pressure;Samples;Min_cycle;Max_cycle;Signal;HPM_P1;HPM_P2
2022/06/06 00:01:45;;;;;;;4.97;1.90;;;;;;;13.45;63.57;99337.84;5072802;28;20458;-73
2022/06/06 00:04:12;;;;;;;10.10;2.50;;;;;;;13.42;63.60;99321.81;5052799;28;20493;-74
2022/06/06 00:06:39;;;;;;;4.18;2.88;;;;;;;13.42;63.67;99332.97;5060564;28;20068;-74
2022/06/06 00:09:08;;;;;;;10.15;2.67;;;;;;;13.40;63.88;99326.94;5072271;28;20079;-74
2022/06/06 00:11:36;;;;;;;5.57;2.85;;;;;;;13.38;64.00;99327.28;5072439;28;20504;-74
2022/06/06 00:14:04;;;;;;;8.38;3.65;;;;;;;13.34;63.88;99325.56;5072045;28;20130;-75
2022/06/06 00:16:32;;;;;;;7.30;3.92;;;;;;;13.30;63.98;99319.06;5051275;28;20049;-78
2022/06/06 00:19:04;;;;;;;7.88;3.95;;;;;;;13.31;64.08;99323.47;5055568;28;20128;-73
2022/06/06 00:21:33;;;;;;;8.25;3.78;;;;;;;13.34;63.72;99328.34;5072275;28;20040;-76
2022/06/06 00:24:01;;;;;;;8.23;3.50;;;;;;;13.32;64.16;99325.13;5071966;28;20049;-74
2022/06/06 00:26:29;;;;;;;10.88;4.20;;;;;;;13.28;64.35;99319.44;5072088;28;20645;-77
2022/06/06 00:28:57;;;;;;;7.13;3.95;;;;;;;13.30;64.00;99333.03;5072381;28;20065;-73
2022/06/06 00:37:00;;;;;;;8.13;3.47;;;;;;;13.23;64.60;99324.47;5052646;28;20056;-74
2022/06/06 00:39:27;;;;;;;8.60;2.53;;;;;;;13.24;64.69;99337.25;5052380;28;20053;-75
2022/06/06 00:41:56;;;;;;;7.80;3.72;;;;;;;13.21;64.90;99327.63;5051826;28;20140;-77
2022/06/06 00:44:28;;;;;;;10.38;2.78;;;;;;;13.22;64.75;99334.00;5052105;28;20467;-74
2022/06/06 00:47:00;;;;;;;8.57;3.10;;;;;;;13.19;64.89;99335.53;5052615;28;20496;-74
2022/06/06 00:49:34;;;;;;;5.93;2.80;;;;;;;13.19;65.09;99340.28;5050467;28;20053;-74
2022/06/06 00:52:08;;;;;;;6.72;2.80;;;;;;;13.17;64.95;99337.06;5051765;28;20398;-72
2022/06/06 00:54:36;;;;;;;12.40;2.67;;;;;;;13.15;65.05;99337.41;5033847;28;20076;-73
2022/06/06 00:57:13;;;;;;;9.90;2.80;;;;;;;13.17;65.12;99348.22;5054632;28;20055;-70
2022/06/06 00:59:42;;;;;;;3.58;2.50;;;;;;;13.12;65.24;99328.91;5075558;28;20048;-70
2022/06/06 01:02:11;;;;;;;4.75;2.72;;;;;;;13.12;65.48;99340.09;5075504;28;20048;-73
2022/06/06 01:04:40;;;;;;;8.05;3.03;;;;;;;13.13;65.48;99336.94;5075968;28;20057;-73
2022/06/06 01:07:09;;;;;;;4.55;2.75;;;;;;;13.12;65.43;99340.09;5075675;28;20044;-70
2022/06/06 01:09:38;;;;;;;5.50;2.67;;;;;;;13.11;65.68;99332.88;5057688;28;20048;-72
2022/06/06 01:12:11;;;;;;;4.30;2.40;;;;;;;13.10;65.63;99336.81;5075433;28;20048;-72
2022/06/06 01:14:51;;;;;;;5.97;2.40;;;;;;;13.04;65.86;99327.91;5075237;28;20392;-70
2022/06/06 01:17:49;;;;;;;6.78;2.90;;;;;;;12.98;65.95;99331.25;5075793;28;20503;-69
2022/06/06 01:20:40;;;;;;;14.70;2.80;;;;;;;12.93;65.91;99332.31;5075540;28;20522;-70
2022/06/06 01:23:26;;;;;;;7.35;2.92;;;;;;;12.91;65.90;99332.66;5074882;28;20063;-72
2022/06/06 01:26:35;;;;;;;10.60;3.45;;;;;;;12.92;66.32;99333.50;5075454;28;20139;-68
2022/06/06 01:29:34;;;;;;;5.60;2.65;;;;;;;12.84;66.13;99326.06;4993969;28;20634;-70
2022/06/06 01:32:05;;;;;;;11.60;3.00;;;;;;;12.82;66.54;99328.38;4983294;28;20062;-70
2022/06/06 01:34:36;;;;;;;6.35;2.97;;;;;;;12.80;66.51;99327.94;5043332;28;20291;-74
2022/06/06 01:37:22;;;;;;;4.63;2.70;;;;;;;12.86;66.31;99327.34;5037569;28;20044;-73
2022/06/06 01:39:49;;;;;;;6.20;3.00;;;;;;;12.84;66.33;99332.47;5054963;28;20084;-73
2022/06/06 01:42:27;;;;;;;5.75;2.78;;;;;;;12.87;66.33;99326.16;5054985;28;20041;-73
2022/06/06 01:45:02;;;;;;;5.40;2.90;;;;;;;12.86;66.58;99332.09;5054916;28;20057;-73
2022/06/06 01:47:41;;;;;;;5.00;2.50;;;;;;;12.89;66.45;99331.41;5055498;28;20072;-73
2022/06/06 01:50:09;;;;;;;6.35;2.50;;;;;;;12.89;66.43;99329.44;5054645;28;20555;-74
2022/06/06 01:52:58;;;;;;;5.47;2.45;;;;;;;12.93;66.42;99323.94;5054812;28;20511;-74
2022/06/06 01:55:28;;;;;;;9.40;2.80;;;;;;;12.93;66.35;99333.13;5054515;28;20053;-73
2022/06/06 01:57:59;;;;;;;7.55;2.80;;;;;;;12.95;66.20;99327.19;5054701;28;20048;-74
2022/06/06 02:00:27;;;;;;;9.73;2.83;;;;;;;12.97;66.20;99332.44;5054576;28;20056;-75
2022/06/06 02:02:54;;;;;;;6.50;4.35;;;;;;;12.98;66.25;99339.63;5066961;28;20056;-70
2022/06/06 02:05:21;;;;;;;5.53;2.90;;;;;;;12.98;66.46;99328.47;5039993;28;20147;-68
2022/06/06 02:07:48;;;;;;;12.02;3.00;;;;;;;12.97;66.38;99329.63;5074423;28;20526;-68
2022/06/06 02:10:16;;;;;;;14.43;3.30;;;;;;;12.98;66.51;99328.47;5055529;28;20048;-69
2022/06/06 02:12:44;;;;;;;8.40;3.28;;;;;;;12.98;66.35;99331.25;5067760;28;20398;-68
2022/06/06 02:15:14;;;;;;;6.07;2.97;;;;;;;13.03;66.51;99331.03;5036227;28;20051;-69
2022/06/06 02:17:42;;;;;;;8.40;4.32;;;;;;;13.00;66.24;99326.16;5054154;28;20048;-69
2022/06/06 02:20:11;;;;;;;9.48;5.00;;;;;;;13.07;66.27;99331.94;5054035;28;20496;-68
2022/06/06 02:22:38;;;;;;;7.25;3.83;;;;;;;13.08;66.24;99333.59;5036667;28;20131;-69
2022/06/06 02:25:07;;;;;;;5.25;3.88;;;;;;;13.11;66.27;99330.88;5049512;28;20053;-70
2022/06/06 02:27:35;;;;;;;5.50;3.63;;;;;;;13.11;66.12;99327.31;5053931;28;20049;-74
2022/06/06 02:30:04;;;;;;;9.00;4.10;;;;;;;13.10;66.34;99331.25;5053794;28;20057;-74
2022/06/06 02:32:32;;;;;;;7.32;4.68;;;;;;;13.11;66.23;99341.28;5054068;28;20405;-75
2022/06/06 02:34:59;;;;;;;8.50;3.85;;;;;;;13.13;66.20;99341.72;5067126;28;20056;-74
2022/06/06 02:37:26;;;;;;;13.38;4.20;;;;;;;13.14;66.32;99335.75;5074116;28;20162;-74
2022/06/06 02:39:53;;;;;;;5.63;3.50;;;;;;;13.13;66.02;99341.72;5073484;28;20075;-74
2022/06/06 02:42:21;;;;;;;11.43;4.57;;;;;;;13.19;66.03;99340.28;5073875;28;20048;-75
2022/06/06 02:44:48;;;;;;;7.88;5.10;;;;;;;13.24;66.06;99348.44;5073471;28;20135;-74
2022/06/06 02:47:15;;;;;;;13.15;5.40;;;;;;;13.27;65.76;99347.72;5073667;28;20153;-74
2022/06/06 02:49:42;;;;;;;11.23;4.60;;;;;;;13.32;65.75;99350.28;5073398;28;20048;-70
2022/06/06 02:52:09;;;;;;;9.20;3.92;;;;;;;13.34;65.73;99345.94;5073550;28;20064;-70
2022/06/06 02:54:36;;;;;;;7.35;3.88;;;;;;;13.36;65.64;99343.63;5055812;28;20155;-71
2022/06/06 02:57:03;;;;;;;7.13;3.80;;;;;;;13.38;65.46;99349.63;5073498;28;20055;-71
2022/06/06 02:59:33;;;;;;;6.50;3.92;;;;;;;13.38;65.56;99351.63;5073098;28;20530;-71
2022/06/06 03:02:02;;;;;;;11.60;3.50;;;;;;;13.42;65.42;99349.75;5067572;28;20067;-71
2022/06/06 03:04:30;;;;;;;5.88;3.28;;;;;;;13.43;65.48;99351.38;5053161;28;20057;-70
2022/06/06 03:07:28;;;;;;;10.43;3.33;;;;;;;13.50;65.51;99359.97;5053025;28;20056;-70
2022/06/06 03:10:16;;;;;;;7.35;3.22;;;;;;;13.54;65.36;99358.06;5060882;28;20037;-70
2022/06/06 03:13:12;;;;;;;10.95;3.08;;;;;;;13.59;65.06;99357.81;5073262;28;20044;-69
2022/06/06 03:20:46;;;;;;;5.15;3.63;;;;;;;13.61;65.28;99352.66;5052876;28;20049;-69
2022/06/06 03:21:43;;;;;;;4.07;2.75;;;;;;;13.75;64.80;99356.69;5072794;28;20087;-69
2022/06/06 03:24:37;;;;;;;7.47;2.85;;;;;;;13.80;64.62;99361.22;5072874;28;20056;-69
2022/06/06 03:27:25;;;;;;;5.20;3.05;;;;;;;13.81;64.41;99362.81;5073387;28;20512;-68
2022/06/06 03:30:06;;;;;;;8.82;2.63;;;;;;;13.85;64.46;99358.13;5051512;28;20076;-69
2022/06/06 03:32:58;;;;;;;5.30;2.90;;;;;;;13.96;64.15;99362.03;5072891;28;20052;-70
2022/06/06 03:35:46;;;;;;;5.07;3.10;;;;;;;14.04;64.11;99356.25;5055260;28;20048;-70
2022/06/06 03:38:40;;;;;;;6.03;2.83;;;;;;;14.18;63.81;99361.44;5051557;28;20590;-69
2022/06/06 03:41:35;;;;;;;5.88;3.10;;;;;;;14.45;63.43;99360.56;5052720;28;20512;-69
2022/06/06 03:44:05;;;;;;;4.13;2.92;;;;;;;14.66;62.92;99359.06;5052896;28;20049;-69
2022/06/06 03:46:44;;;;;;;6.88;3.42;;;;;;;14.88;62.11;99368.78;5052783;28;20072;-70
2022/06/06 03:49:40;;;;;;;5.90;2.70;;;;;;;15.05;61.78;99378.75;5052223;28;20423;-70
2022/06/06 03:52:10;;;;;;;7.32;2.78;;;;;;;15.09;61.56;99372.03;5052731;28;20425;-70
2022/06/06 03:55:02;;;;;;;5.38;3.05;;;;;;;15.17;61.46;99381.41;5052608;28;20136;-70
2022/06/06 03:57:32;;;;;;;4.43;2.95;;;;;;;15.24;61.47;99364.75;5052602;28;20487;-69
2022/06/06 04:00:06;;;;;;;3.85;2.95;;;;;;;15.34;60.91;99364.19;5066433;28;20439;-71
2022/06/06 04:02:36;;;;;;;6.03;2.75;;;;;;;15.47;60.43;99358.09;5072145;28;20127;-70
2022/06/06 04:05:07;;;;;;;4.93;2.92;;;;;;;15.56;60.23;99350.28;5072465;28;20048;-69
2022/06/06 04:07:34;;;;;;;7.10;2.95;;;;;;;15.56;60.23;99339.06;5072561;28;20049;-74
2022/06/06 04:10:02;;;;;;;4.68;3.00;;;;;;;15.73;60.12;99354.59;5072346;28;20068;-74
2022/06/06 04:12:35;;;;;;;3.92;2.97;;;;;;;15.86;59.59;99354.06;5072404;28;20052;-73
2022/06/06 04:15:14;;;;;;;4.00;2.53;;;;;;;15.99;59.11;99352.69;5073186;28;20543;-71
2022/06/06 04:17:57;;;;;;;6.97;2.95;;;;;;;16.13;58.73;99358.56;5072447;28;20131;-69
2022/06/06 04:20:33;;;;;;;6.47;3.08;;;;;;;16.27;58.08;99355.19;5054186;28;20080;-71
2022/06/06 04:23:34;;;;;;;5.57;2.75;;;;;;;16.40;57.93;99362.22;5068721;28;20083;-71
2022/06/06 04:26:07;;;;;;;4.38;3.00;;;;;;;16.55;57.38;99363.31;5052613;28;20102;-70
2022/06/06 04:28:44;;;;;;;5.32;2.67;;;;;;;16.73;57.08;99367.22;5034813;28;20063;-69
2022/06/06 04:31:28;;;;;;;13.95;2.97;;;;;;;16.89;56.53;99379.94;5052017;28;20469;-70
2022/06/06 04:34:24;;;;;;;4.35;3.00;;;;;;;17.10;55.78;99376.59;5063596;28;20052;-69
2022/06/06 04:36:54;;;;;;;13.02;2.70;;;;;;;17.25;55.49;99376.44;5056544;28;20053;-69
2022/06/06 04:39:24;;;;;;;;;;;;;;;17.35;55.45;99387.00;5056566;28;20045;-69
2022/06/06 04:42:02;;;;;;;4.93;2.95;;;;;;;17.47;54.75;99388.81;5056063;28;19925;-69
2022/06/06 04:44:44;;;;;;;3.50;2.30;;;;;;;17.58;54.60;99390.56;5056129;28;20091;-69
2022/06/06 04:47:39;;;;;;;10.70;2.47;;;;;;;17.60;54.22;99393.81;5055903;28;20476;-70
2022/06/06 04:50:16;;;;;;;5.40;2.90;;;;;;;17.57;54.32;99393.75;5056173;28;20091;-70
2022/06/06 04:52:47;;;;;;;5.10;2.70;;;;;;;17.76;53.84;99383.16;5055722;28;20128;-70
2022/06/06 04:55:17;;;;;;;5.53;3.15;;;;;;;18.08;52.78;99397.56;5055856;28;20044;-70
2022/06/06 04:57:48;;;;;;;5.25;2.85;;;;;;;18.35;52.26;99396.25;5056144;28;20081;-70
2022/06/06 05:00:16;;;;;;;7.95;2.78;;;;;;;18.41;51.94;99397.53;5055967;28;20056;-70
2022/06/06 05:02:43;;;;;;;3.95;2.42;;;;;;;18.37;52.05;99402.34;5069777;28;20053;-69
2022/06/06 05:05:10;;;;;;;7.80;2.83;;;;;;;18.59;51.87;99406.97;5075453;28;20044;-69
2022/06/06 05:07:46;;;;;;;7.80;2.90;;;;;;;18.79;51.10;99399.91;5075446;28;20082;-69
2022/06/06 05:10:44;;;;;;;7.05;3.40;;;;;;;18.70;51.08;99396.59;5075127;28;20082;-69
2022/06/06 05:13:39;;;;;;;4.82;2.47;;;;;;;18.92;50.96;99409.66;5064113;28;20049;-69
2022/06/06 05:16:23;;;;;;;6.18;2.47;;;;;;;19.04;50.39;99403.69;5055236;28;20076;-70
2022/06/06 05:19:08;;;;;;;9.10;2.78;;;;;;;19.28;50.30;99400.28;5055332;28;20053;-69
2022/06/06 05:21:44;;;;;;;5.85;2.75;;;;;;;19.47;49.70;99414.09;5054990;28;20067;-69
2022/06/06 05:24:45;;;;;;;5.43;2.40;;;;;;;19.53;48.52;99412.50;5044415;28;20127;-70
2022/06/06 05:27:43;;;;;;;4.97;2.80;;;;;;;19.41;48.76;99412.84;5055224;28;20417;-69
2022/06/06 05:30:19;;;;;;;4.05;2.63;;;;;;;19.58;48.49;99417.78;5055264;28;20049;-69
2022/06/06 05:32:49;;;;;;;6.65;2.72;;;;;;;19.87;48.04;99421.53;5058106;28;20488;-70
2022/06/06 05:35:32;;;;;;;5.15;2.28;;;;;;;20.16;47.16;99417.59;5075017;28;20591;-69
2022/06/06 05:38:08;;;;;;;8.18;2.30;;;;;;;20.44;46.80;99417.69;5074969;28;20068;-70
2022/06/06 05:40:44;;;;;;;4.35;2.63;;;;;;;20.61;46.08;99416.09;5074560;28;20060;-69
2022/06/06 05:43:30;;;;;;;5.68;2.67;;;;;;;20.81;45.89;99420.16;5074244;28;20460;-69
2022/06/06 05:46:04;;;;;;;4.90;2.45;;;;;;;20.96;45.68;99418.97;5074707;28;20158;-69
2022/06/06 05:48:58;;;;;;;6.60;2.95;;;;;;;21.10;45.10;99416.91;5074860;28;20079;-70
2022/06/06 05:51:44;;;;;;;4.40;2.30;;;;;;;21.22;45.09;99412.84;5074552;28;20053;-69
2022/06/06 05:54:38;;;;;;;4.55;2.55;;;;;;;21.38;44.63;99411.19;5074594;28;20052;-69
2022/06/06 05:57:34;;;;;;;3.35;2.28;;;;;;;21.57;43.84;99418.44;5075064;28;20051;-69
2022/06/06 06:00:05;;;;;;;9.98;2.78;;;;;;;21.58;43.68;99420.88;5074620;28;20052;-70
2022/06/06 06:02:57;;;;;;;5.13;2.67;;;;;;;21.95;43.33;99428.03;5074753;28;20288;-71
2022/06/06 06:06:15;;;;;;;5.72;2.40;;;;;;;22.52;41.77;99418.84;5074249;28;20048;-69
2022/06/06 06:09:03;;;;;;;6.63;3.40;;;;;;;23.78;38.57;99416.06;5074550;28;20052;-70
2022/06/06 06:11:39;;;;;;;3.50;2.35;;;;;;;26.46;33.60;99409.00;5054346;28;20069;-71
2022/06/06 06:14:34;;;;;;;3.75;2.38;;;;;;;29.97;27.44;99415.66;5044635;28;20059;-69
2022/06/06 06:17:02;;;;;;;8.65;3.10;;;;;;;30.53;26.33;99417.66;5065337;28;20053;-71
2022/06/06 06:19:39;;;;;;;6.97;2.13;;;;;;;28.05;29.08;99411.44;5074496;28;20068;-75
2022/06/06 06:22:08;;;;;;;4.18;3.15;;;;;;;27.51;30.09;99410.50;5073806;28;20106;-69
2022/06/06 06:24:38;;;;;;;5.22;2.35;;;;;;;26.75;30.87;99404.28;5074257;28;20044;-75
2022/06/06 06:27:06;;;;;;;3.25;2.40;;;;;;;25.30;33.46;99413.41;5074248;28;20132;-73
2022/06/06 06:29:34;;;;;;;4.15;2.33;;;;;;;24.46;35.18;99406.25;5073792;28;20467;-72
2022/06/06 06:32:24;;;;;;;8.10;2.72;;;;;;;24.00;35.61;99406.06;5074033;28;20052;-69
2022/06/06 06:35:20;;;;;;;3.50;2.33;;;;;;;24.02;35.67;99397.94;5054271;28;20056;-69
2022/06/06 06:38:11;;;;;;;6.22;2.67;;;;;;;23.77;36.48;99398.22;5043654;28;20057;-69
2022/06/06 06:41:17;;;;;;;4.13;2.20;;;;;;;23.91;35.95;99400.06;5053862;28;20056;-69
2022/06/06 06:43:59;;;;;;;5.38;2.28;;;;;;;24.54;34.60;99396.38;5053904;28;20567;-75
2022/06/06 06:46:33;;;;;;;4.72;2.10;;;;;;;25.10;33.87;99393.41;5053932;28;20049;-71
2022/06/06 06:49:51;;;;;;;3.92;2.30;;;;;;;26.09;32.20;99391.53;5053920;28;20052;-70
2022/06/06 06:52:44;;;;;;;4.30;2.47;;;;;;;30.85;26.45;99388.47;5050420;28;20506;-73
2022/06/06 06:55:24;;;;;;;8.70;2.20;;;;;;;35.92;20.55;99388.47;5060145;28;20105;-70
2022/06/06 06:57:57;;;;;;;3.90;2.20;;;;;;;35.64;20.21;99390.19;5073575;28;20547;-69
2022/06/06 07:00:24;;;;;;;10.50;2.88;;;;;;;34.06;21.50;99398.56;5073206;28;20186;-74
2022/06/06 07:09:46;;;;;;;5.28;1.80;;;;;;;28.48;27.02;99394.63;5053711;28;20045;-75
2022/06/06 07:12:42;;;;;;;4.13;2.00;;;;;;;26.20;29.94;99398.59;5061876;28;20078;-73
2022/06/06 07:15:44;;;;;;;7.95;2.33;;;;;;;25.19;30.97;99401.41;5073043;28;20427;-76
2022/06/06 07:18:16;;;;;;;4.95;2.30;;;;;;;28.80;26.73;99407.91;5073427;28;20049;-73
2022/06/06 07:20:47;;;;;;;4.47;2.28;;;;;;;30.95;23.67;99392.97;5072994;28;20127;-72
2022/06/06 07:23:16;;;;;;;3.75;2.08;;;;;;;33.27;20.71;99383.75;5060770;28;20127;-70
2022/06/06 07:25:49;;;;;;;8.60;2.08;;;;;;;29.88;24.19;99401.25;5053165;28;20147;-69
2022/06/06 07:28:22;;;;;;;3.95;2.35;;;;;;;31.06;23.21;99387.56;5053022;28;20053;-71
2022/06/06 07:30:54;;;;;;;54.42;22.38;;;;;;;30.35;24.25;99397.44;5053114;28;20119;-72
2022/06/06 07:33:31;;;;;;;3.33;2.30;;;;;;;35.22;19.22;99392.75;5039580;28;20132;-69
2022/06/06 07:36:16;;;;;;;4.57;2.22;;;;;;;39.06;16.08;99398.22;5053380;28;20063;-71
2022/06/06 07:39:28;;;;;;;7.05;2.20;;;;;;;42.02;13.17;99393.03;5052826;28;20385;-75
2022/06/06 07:42:01;;;;;;;4.40;1.98;;;;;;;43.43;11.76;99388.91;5027780;28;20052;-73
2022/06/06 07:44:31;;;;;;;7.40;1.88;;;;;;;44.20;11.44;99379.31;5053034;28;20048;-75
2022/06/06 07:47:27;;;;;;;3.53;2.17;;;;;;;45.09;10.53;99383.84;5052809;28;20057;-70
2022/06/06 07:50:00;;;;;;;6.50;2.40;;;;;;;46.41;9.71;99384.28;5052918;28;20049;-70
2022/06/06 07:52:40;;;;;;;8.63;2.20;;;;;;;47.33;9.61;99379.53;5052590;28;20420;-71
2022/06/06 07:55:14;;;;;;;4.60;3.22;;;;;;;48.92;8.76;99392.34;5051497;28;20053;-74
2022/06/06 07:57:49;;;;;;;6.97;2.00;;;;;;;46.32;9.67;99377.56;5052828;28;20421;-74
2022/06/06 08:00:22;;;;;;;2.85;1.80;;;;;;;42.30;12.08;99372.97;5052772;28;20075;-70
2022/06/06 08:02:55;;;;;;;3.30;1.80;;;;;;;38.74;14.57;99364.91;5052543;28;20049;-70
2022/06/06 08:05:43;;;;;;;4.18;2.00;;;;;;;41.38;12.39;99356.09;5050953;28;20570;-71
2022/06/06 08:08:40;;;;;;;2.80;1.95;;;;;;;44.46;10.50;99355.75;5051784;28;20053;-72
2022/06/06 08:11:37;;;;;;;4.73;2.07;;;;;;;46.20;9.65;99354.97;5071023;28;20125;-69
2022/06/06 08:14:20;;;;;;;4.78;2.20;;;;;;;48.50;8.04;99358.16;5052041;28;20087;-73
2022/06/06 08:17:01;;;;;;;2.50;1.70;;;;;;;49.04;7.35;99349.13;5052178;28;20045;-73
2022/06/06 08:19:33;;;;;;;2.85;1.90;;;;;;;49.63;7.23;99352.13;5034667;28;20053;-72
2022/06/06 08:22:02;;;;;;;19.17;7.60;;;;;;;50.30;6.79;99343.84;5052383;28;20068;-76
2022/06/06 08:24:48;;;;;;;4.70;2.08;;;;;;;51.34;6.86;99339.88;5052350;28;20049;-71
2022/06/06 08:27:25;;;;;;;2.90;1.80;;;;;;;50.95;6.62;99338.94;5052415;28;20099;-71
2022/06/06 08:29:52;;;;;;;3.13;1.73;;;;;;;47.29;8.89;99340.84;5052205;28;20143;-74
2022/06/06 08:32:19;;;;;;;8.27;2.00;;;;;;;43.88;10.50;99345.63;5052304;28;20496;-70
2022/06/06 08:34:48;;;;;;;2.13;1.30;;;;;;;39.27;13.15;99335.47;5071510;28;20049;-70
2022/06/06 08:37:48;;;;;;;4.63;1.60;;;;;;;33.93;16.94;99340.31;5072095;28;20072;-70
2022/06/06 08:40:21;;;;;;;3.45;1.80;;;;;;;39.68;12.51;99335.59;5072294;28;20058;-71
2022/06/06 08:43:03;;;;;;;2.97;1.80;;;;;;;44.96;9.52;99333.16;5072377;28;20133;-71
2022/06/06 08:45:42;;;;;;;4.07;2.28;;;;;;;47.60;8.29;99335.69;5054040;28;20052;-74
2022/06/06 08:48:21;;;;;;;2.58;1.60;;;;;;;49.07;7.55;99336.09;5071772;28;20048;-74
2022/06/06 08:51:22;;;;;;;4.93;1.63;;;;;;;41.89;11.42;99325.69;5071826;28;20088;-70
2022/06/06 08:54:08;;;;;;;2.63;1.67;;;;;;;36.28;15.31;99331.94;5066517;28;20053;-73
2022/06/06 08:56:47;;;;;;;3.72;2.03;;;;;;;35.03;16.12;99325.69;5072125;28;20131;-73
2022/06/06 09:00:01;;;;;;;2.90;1.70;;;;;;;41.19;11.69;99320.19;5054351;28;20048;-70
2022/06/06 09:02:34;;;;;;;5.03;1.92;;;;;;;41.71;11.36;99316.91;5063564;28;20049;-70
2022/06/06 09:05:26;;;;;;;3.42;1.70;;;;;;;41.06;11.48;99317.88;5071865;28;20056;-71
2022/06/06 09:08:30;;;;;;;3.00;1.70;;;;;;;36.66;14.84;99314.94;5072005;28;20048;-70
2022/06/06 09:11:11;;;;;;;2.67;1.58;;;;;;;34.79;16.91;99312.69;5050328;28;20049;-69
2022/06/06 09:13:59;;;;;;;6.57;1.73;;;;;;;32.68;18.90;99317.63;5051711;28;20139;-73
2022/06/06 09:16:44;;;;;;;;;;;;;;;38.05;14.40;99319.34;5057845;28;20080;-70
2022/06/06 09:19:26;;;;;;;5.30;1.90;;;;;;;42.93;10.53;99314.47;5074168;28;19936;-74
2022/06/06 09:22:13;;;;;;;4.13;1.77;;;;;;;44.98;9.06;99318.69;5074977;28;20044;-71
2022/06/06 09:25:17;;;;;;;3.03;1.88;;;;;;;47.00;8.34;99324.72;5075402;28;20044;-73
2022/06/06 09:27:55;;;;;;;2.67;1.40;;;;;;;45.35;9.41;99324.88;5075679;28;20603;-75
2022/06/06 09:31:11;;;;;;;4.57;1.70;;;;;;;38.29;13.88;99328.38;5075024;28;20053;-70
2022/06/06 09:33:58;;;;;;;2.13;1.10;;;;;;;34.77;16.26;99318.16;5054011;28;20432;-69
2022/06/06 09:36:31;;;;;;;2.80;1.27;;;;;;;33.61;17.34;99326.78;5075177;28;20072;-71
2022/06/06 09:39:07;;;;;;;2.45;1.45;;;;;;;32.35;18.60;99313.94;5075067;28;20049;-70
2022/06/06 09:41:49;;;;;;;4.10;1.70;;;;;;;31.34;19.90;99317.38;5075042;28;20159;-70
2022/06/06 09:44:31;;;;;;;2.63;1.60;;;;;;;30.25;20.92;99319.09;5074775;28;20040;-71
2022/06/06 09:47:20;;;;;;;2.88;1.30;;;;;;;29.10;22.25;99327.88;5057245;28;20072;-70
2022/06/06 09:49:56;;;;;;;3.00;1.60;;;;;;;28.21;23.23;99319.78;5074839;28;20056;-70
2022/06/06 09:52:35;;;;;;;3.53;1.45;;;;;;;27.67;23.78;99328.38;5074819;28;20052;-74
2022/06/06 10:01:30;;;;;;;8.20;4.25;;;;;;;24.90;27.42;99329.16;5074236;28;20131;-70
2022/06/06 10:04:11;;;;;;;8.15;1.77;;;;;;;24.60;28.14;99332.09;5075141;28;20515;-69
2022/06/06 10:07:18;;;;;;;3.40;1.60;;;;;;;24.97;27.46;99321.28;5058321;28;20098;-73
2022/06/06 10:10:37;;;;;;;2.40;1.55;;;;;;;25.13;27.52;99321.38;5074348;28;20041;-70
2022/06/06 10:13:25;;;;;;;3.13;1.67;;;;;;;24.83;28.67;99317.88;5067835;28;20044;-72
2022/06/06 10:16:44;;;;;;;2.45;1.35;;;;;;;24.69;28.68;99309.59;5070725;28;20139;-73
2022/06/06 10:19:41;;;;;;;2.00;1.27;;;;;;;24.46;29.11;99323.78;5051629;28;20061;-71
2022/06/06 10:22:20;;;;;;;4.00;1.55;;;;;;;24.12;29.16;99321.03;5039625;28;20050;-69
2022/06/06 10:25:09;;;;;;;3.07;1.77;;;;;;;23.55;30.35;99311.66;5055088;28;20055;-73
2022/06/06 10:27:54;;;;;;;;;;;;;;;23.29;30.68;99310.34;5075639;28;20049;-69
2022/06/06 10:30:37;;;;;;;3.85;1.45;;;;;;;23.46;30.91;99319.06;5073236;28;19924;-74
2022/06/06 10:33:38;;;;;;;3.95;1.42;;;;;;;23.54;30.82;99314.94;5070177;28;20047;-74
2022/06/06 10:36:24;;;;;;;2.22;1.50;;;;;;;23.59;30.73;99301.06;5061163;28;20049;-70
2022/06/06 10:39:20;;;;;;;5.43;1.20;;;;;;;23.64;30.88;99305.44;5080029;28;20409;-74
2022/06/06 10:42:16;;;;;;;3.80;1.08;;;;;;;23.75;30.55;99303.28;5072481;28;20056;-74
2022/06/06 10:45:00;;;;;;;2.95;1.55;;;;;;;24.10;30.02;99302.81;5064935;28;20522;-71
2022/06/06 10:48:04;;;;;;;2.28;1.20;;;;;;;24.52;29.63;99291.56;5071426;28;20098;-69
2022/06/06 10:54:14;;;;;;;3.57;1.27;;;;;;;24.76;29.08;99295.25;5050332;28;20041;-74
2022/06/06 10:57:20;;;;;;;1.48;1.08;;;;;;;24.50;29.63;99293.22;5072207;28;20526;-74
2022/06/06 11:00:18;;;;;;;3.83;1.40;;;;;;;24.15;30.36;99299.47;5058529;28;20048;-74
2022/06/06 11:03:23;;;;;;;4.10;1.20;;;;;;;24.03;30.94;99297.22;5071361;28;20387;-70
2022/06/06 11:06:03;;;;;;;2.20;1.35;;;;;;;23.87;30.79;99288.50;5069753;28;20055;-77
2022/06/06 11:08:50;;;;;;;4.55;1.33;;;;;;;23.82;30.67;99286.13;5065008;28;20504;-74
2022/06/06 11:11:35;;;;;;;1.90;1.30;;;;;;;23.62;30.86;99288.06;5067895;28;20044;-73
2022/06/06 11:14:11;;;;;;;1.90;1.25;;;;;;;23.69;30.60;99287.94;5070394;28;20047;-69
2022/06/06 11:17:10;;;;;;;2.85;1.20;;;;;;;23.67;30.51;99284.72;5069853;28;20123;-72
2022/06/06 11:20:00;;;;;;;8.32;1.50;;;;;;;23.67;30.51;99281.88;5064980;28;20048;-73
2022/06/06 11:22:32;;;;;;;3.55;1.20;;;;;;;23.88;30.38;99278.75;5072340;28;20032;-73
2022/06/06 11:25:19;;;;;;;2.08;1.25;;;;;;;23.92;30.01;99279.50;5073747;28;20045;-76
2022/06/06 11:28:13;;;;;;;5.03;1.20;;;;;;;23.91;29.91;99281.53;5073273;28;20048;-72
2022/06/06 11:30:50;;;;;;;2.83;1.00;;;;;;;23.90;29.83;99279.13;5073001;28;20052;-77
2022/06/06 11:33:54;;;;;;;8.18;1.50;;;;;;;23.58;30.47;99270.25;5072702;28;20048;-76
2022/06/06 11:36:52;;;;;;;1.48;0.93;;;;;;;23.33;30.20;99267.75;5054689;28;20056;-76
2022/06/06 11:40:05;;;;;;;2.10;1.00;;;;;;;23.62;29.65;99266.13;5072822;28;20139;-77
2022/06/06 11:43:03;;;;;;;3.50;1.10;;;;;;;23.92;29.26;99268.16;5073021;28;20049;-71
2022/06/06 11:45:48;;;;;;;4.70;1.02;;;;;;;24.09;29.11;99258.56;5072576;28;20066;-75
2022/06/06 11:48:35;;;;;;;5.57;1.05;;;;;;;24.26;29.03;99260.31;5072651;28;20059;-76
2022/06/06 11:51:12;;;;;;;6.50;1.98;;;;;;;24.17;29.10;99258.03;5072516;28;20064;-72
2022/06/06 11:54:18;;;;;;;4.38;1.02;;;;;;;23.98;28.96;99249.41;5072570;28;20500;-72
2022/06/06 11:56:59;;;;;;;6.72;1.20;;;;;;;23.91;29.04;99252.31;5073175;28;20052;-75
2022/06/06 11:59:54;;;;;;;5.47;0.90;;;;;;;23.97;28.83;99247.78;5072571;28;20056;-72
2022/06/06 12:02:39;;;;;;;1.33;0.90;;;;;;;24.05;28.72;99252.13;5055283;28;20135;-76
2022/06/06 12:05:40;;;;;;;4.78;0.95;;;;;;;24.17;28.14;99245.84;5068342;28;20507;-71
2022/06/06 12:08:32;;;;;;;3.35;0.90;;;;;;;24.19;27.75;99243.38;5072310;28;20393;-72
2022/06/06 12:11:30;;;;;;;2.33;1.02;;;;;;;24.02;28.03;99244.47;5072509;28;20131;-71
2022/06/06 12:14:22;;;;;;;10.80;1.30;;;;;;;23.89;28.34;99246.28;5072470;28;20094;-71
2022/06/06 12:16:58;;;;;;;1.90;0.77;;;;;;;23.74;28.47;99244.88;5072590;28;20385;-77
2022/06/06 12:19:38;;;;;;;1.23;0.90;;;;;;;23.55;29.02;99242.69;5071977;28;20542;-72
2022/06/06 12:22:11;;;;;;;1.67;0.80;;;;;;;23.49;28.78;99239.53;5068773;28;20037;-77
2022/06/06 12:25:07;;;;;;;3.25;1.00;;;;;;;23.42;28.87;99238.81;5052324;28;20049;-72
2022/06/06 12:28:10;;;;;;;1.70;0.88;;;;;;;23.24;28.46;99239.06;5052117;28;20140;-71
2022/06/06 12:31:09;;;;;;;1.83;1.00;;;;;;;23.31;28.51;99233.28;5052503;28;20108;-72
2022/06/06 12:33:47;;;;;;;1.83;1.02;;;;;;;23.34;28.01;99240.94;5050338;28;20484;-75
2022/06/06 12:36:22;;;;;;;6.57;1.98;;;;;;;23.36;28.21;99239.28;5066351;28;20052;-72
2022/06/06 12:38:55;;;;;;;1.40;0.90;;;;;;;23.41;27.69;99240.06;5071982;28;20521;-75
2022/06/06 12:41:41;;;;;;;3.13;0.80;;;;;;;23.30;27.93;99240.97;5072105;28;20499;-76
2022/06/06 12:44:26;;;;;;;0.93;0.60;;;;;;;23.28;27.96;99239.81;5072450;28;20049;-76
2022/06/06 12:47:02;;;;;;;2.22;0.95;;;;;;;23.38;28.02;99235.22;5072284;28;20048;-76
2022/06/06 12:49:56;;;;;;;4.00;1.00;;;;;;;23.44;28.17;99225.78;5071975;28;20058;-73
2022/06/06 12:52:26;;;;;;;1.80;1.10;;;;;;;23.28;28.38;99239.81;5072405;28;20110;-73
2022/06/06 12:58:22;;;;;;;5.25;0.80;;;;;;;22.63;28.67;99231.63;5075797;28;20151;-73
2022/06/06 13:04:04;;;;;;;1.23;0.80;;;;;;;22.56;28.71;99235.31;5075664;28;20128;-72
2022/06/06 13:06:55;;;;;;;2.20;1.00;;;;;;;22.61;28.96;99226.38;5076558;28;20059;-73
2022/06/06 13:09:59;;;;;;;1.00;0.80;;;;;;;22.77;28.79;99228.63;5075436;28;20087;-77
2022/06/06 13:12:44;;;;;;;3.85;0.90;;;;;;;22.83;28.97;99238.28;5075731;28;20049;-76